Time;durP1;ratioP1;P1;durP2;ratioP2;P2;SDS_P1;SDS_P2;PMS_P1;PMS_P2;Temp;Humidity;BMP_temperature;BMP_pressure;BME280_temperature;BME280_humidity;BME280_pressure;Samples;Min_cycle;Max_cycle;Signal;HPM_P1;HPM_P2
2023/04/18 00:01:17;;;;;;;12.30;8.30;;;;;;;;;;4987100;28;20702;-74
2023/04/18 00:03:44;;;;;;;12.73;8.00;;;;;;;;;;4975851;28;20236;-73
2023/04/18 00:06:11;;;;;;;11.17;7.90;;;;;;;;;;4995009;28;20220;-74
2023/04/18 00:08:38;;;;;;;12.00;8.00;;;;;;;;;;4989767;28;20698;-73
2023/04/18 00:11:04;;;;;;;11.70;7.40;;;;;;;;;;4977028;28;20729;-73
2023/04/18 00:13:31;;;;;;;11.90;7.53;;;;;;;;;;4998146;28;20401;-74
2023/04/18 00:16:00;;;;;;;10.93;7.43;;;;;;;;;;4992986;28;20275;-73
2023/04/18 00:18:27;;;;;;;9.97;7.57;;;;;;;;;;4993163;28;20232;-74
2023/04/18 00:20:53;;;;;;;13.40;8.23;;;;;;;;;;4996334;28;20603;-73
2023/04/18 00:23:20;;;;;;;12.57;7.70;;;;;;;;;;4996626;28;20685;-73
2023/04/18 00:25:47;;;;;;;11.37;7.40;;;;;;;;;;4995285;28;20584;-73
2023/04/18 00:28:13;;;;;;;12.40;8.47;;;;;;;;;;4995769;28;20272;-73
2023/04/18 00:30:40;;;;;;;11.53;7.90;;;;;;;;;;4979027;28;20493;-73
2023/04/18 00:33:07;;;;;;;12.17;7.93;;;;;;;;;;4980786;28;20209;-74
2023/04/18 00:35:36;;;;;;;11.30;7.53;;;;;;;;;;4993385;28;20299;-74
2023/04/18 00:38:03;;;;;;;10.33;7.40;;;;;;;;;;4994580;28;20220;-73
2023/04/18 00:40:30;;;;;;;13.80;7.47;;;;;;;;;;4993707;28;20737;-73
2023/04/18 00:42:56;;;;;;;10.93;7.10;;;;;;;;;;4976174;28;20707;-73
2023/04/18 00:45:23;;;;;;;8.40;6.80;;;;;;;;;;4991964;28;20712;-74
2023/04/18 00:47:49;;;;;;;10.70;7.37;;;;;;;;;;4995268;28;20204;-73
2023/04/18 00:50:16;;;;;;;11.27;7.13;;;;;;;;;;4992715;28;20205;-73
2023/04/18 00:52:44;;;;;;;10.87;7.47;;;;;;;;;;4989282;28;20220;-73
2023/04/18 00:55:11;;;;;;;11.67;7.60;;;;;;;;;;4980091;28;20216;-73
2023/04/18 00:57:38;;;;;;;11.57;7.23;;;;;;;;;;4994553;28;20471;-73
2023/04/18 01:00:07;;;;;;;9.03;7.37;;;;;;;;;;4993292;28;20604;-74
2023/04/18 01:02:34;;;;;;;12.10;7.63;;;;;;;;;;4990449;28;20531;-74
2023/04/18 01:05:01;;;;;;;9.67;6.87;;;;;;;;;;4978273;28;20205;-74
2023/04/18 01:07:30;;;;;;;11.50;7.50;;;;;;;;;;4978558;28;20295;-74
2023/04/18 01:09:57;;;;;;;12.13;7.63;;;;;;;;;;4976270;28;20197;-74
2023/04/18 01:12:24;;;;;;;11.63;7.50;;;;;;;;;;4994549;28;20228;-72
2023/04/18 01:14:50;;;;;;;10.87;7.20;;;;;;;;;;4991588;28;20209;-74
2023/04/18 01:17:18;;;;;;;10.57;7.70;;;;;;;;;;4976102;28;20217;-74
2023/04/18 01:19:45;;;;;;;11.70;7.90;;;;;;;;;;4992999;28;20211;-74
2023/04/18 01:22:13;;;;;;;11.67;7.67;;;;;;;;;;4978944;28;20217;-74
2023/04/18 01:24:41;;;;;;;11.80;7.57;;;;;;;;;;4975577;28;20201;-74
2023/04/18 01:27:10;;;;;;;11.57;7.83;;;;;;;;;;4994474;28;20909;-74
2023/04/18 01:29:37;;;;;;;11.97;7.23;;;;;;;;;;4989711;28;20563;-74
2023/04/18 01:32:03;;;;;;;11.60;7.63;;;;;;;;;;4977836;28;20235;-74
2023/04/18 01:34:29;;;;;;;13.23;7.73;;;;;;;;;;4976678;28;20830;-74
2023/04/18 01:36:55;;;;;;;13.47;7.10;;;;;;;;;;4995039;28;20201;-74
2023/04/18 01:39:22;;;;;;;11.23;7.23;;;;;;;;;;4977569;28;20220;-74
2023/04/18 01:41:50;;;;;;;10.50;7.30;;;;;;;;;;4992938;28;20220;-74
2023/04/18 01:44:16;;;;;;;11.60;7.87;;;;;;;;;;4990130;28;20215;-74
2023/04/18 01:46:45;;;;;;;10.47;7.70;;;;;;;;;;4990898;28;20725;-74
2023/04/18 01:49:11;;;;;;;10.93;7.37;;;;;;;;;;4977531;28;20679;-74
2023/04/18 01:51:38;;;;;;;11.33;7.67;;;;;;;;;;4989803;28;20235;-74
2023/04/18 01:54:04;;;;;;;10.40;7.10;;;;;;;;;;4980336;28;20208;-74
2023/04/18 01:56:31;;;;;;;10.93;7.47;;;;;;;;;;4975759;28;20681;-74
2023/04/18 01:59:00;;;;;;;11.20;7.53;;;;;;;;;;4976363;28;20209;-74
2023/04/18 02:01:27;;;;;;;11.00;7.47;;;;;;;;;;4977438;28;20221;-74
2023/04/18 02:03:53;;;;;;;13.90;8.47;;;;;;;;;;4978228;28;20196;-74
2023/04/18 02:06:20;;;;;;;14.33;7.60;;;;;;;;;;4990222;28;20691;-74
2023/04/18 02:08:47;;;;;;;14.97;7.00;;;;;;;;;;4974885;28;20695;-74
2023/04/18 02:11:14;;;;;;;10.53;6.80;;;;;;;;;;4985213;28;20248;-74
2023/04/18 02:13:40;;;;;;;11.63;7.37;;;;;;;;;;4973725;28;20575;-74
2023/04/18 02:16:12;;;;;;;11.70;7.20;;;;;;;;;;4992843;28;20603;-74
2023/04/18 02:18:39;;;;;;;11.93;7.33;;;;;;;;;;4988738;28;20213;-74
2023/04/18 02:21:06;;;;;;;11.20;7.73;;;;;;;;;;4974867;28;20854;-74
2023/04/18 02:23:32;;;;;;;12.93;7.53;;;;;;;;;;4993169;28;20204;-74
2023/04/18 02:25:59;;;;;;;14.93;8.33;;;;;;;;;;4990747;28;21062;-74
2023/04/18 02:28:26;;;;;;;11.90;8.13;;;;;;;;;;4987888;28;20201;-74
2023/04/18 02:30:52;;;;;;;12.97;7.87;;;;;;;;;;4986482;28;20672;-74
2023/04/18 02:33:20;;;;;;;12.17;7.43;;;;;;;;;;4977535;28;20204;-74
2023/04/18 02:35:47;;;;;;;12.20;7.90;;;;;;;;;;4987518;28;20197;-74
2023/04/18 02:38:15;;;;;;;11.07;7.50;;;;;;;;;;4975347;28;20307;-74
2023/04/18 02:40:41;;;;;;;12.83;8.00;;;;;;;;;;4973573;28;20607;-74
2023/04/18 02:43:08;;;;;;;12.47;8.10;;;;;;;;;;4972203;28;20208;-74
2023/04/18 02:45:34;;;;;;;15.13;7.47;;;;;;;;;;4990973;28;20204;-74
2023/04/18 02:48:01;;;;;;;13.70;8.00;;;;;;;;;;4975534;28;20294;-73
2023/04/18 02:50:28;;;;;;;11.90;7.63;;;;;;;;;;4986194;28;20228;-74
2023/04/18 02:52:56;;;;;;;12.50;7.80;;;;;;;;;;4973158;28;20208;-74
2023/04/18 02:55:28;;;;;;;12.83;7.83;;;;;;;;;;4996052;28;20224;-74
2023/04/18 02:57:58;;;;;;;14.00;7.83;;;;;;;;;;4974756;28;20207;-74
2023/04/18 03:00:45;;;;;;;12.13;8.23;;;;;;;;;;4990388;28;20220;-74
2023/04/18 03:03:30;;;;;;;12.43;7.87;;;;;;;;;;4993042;28;20318;-74
2023/04/18 03:06:16;;;;;;;11.67;8.53;;;;;;;;;;4974824;28;20278;-74
2023/04/18 03:08:42;;;;;;;13.10;8.37;;;;;;;;;;4990931;28;20347;-74
2023/04/18 03:11:09;;;;;;;14.40;8.93;;;;;;;;;;4973222;28;20228;-74
2023/04/18 03:13:36;;;;;;;15.20;9.40;;;;;;;;;;4976493;28;20283;-74
2023/04/18 03:16:03;;;;;;;12.83;8.63;;;;;;;;;;4978288;28;20197;-74
2023/04/18 03:18:30;;;;;;;12.67;7.93;;;;;;;;;;4990594;28;20660;-74
2023/04/18 03:20:58;;;;;;;13.60;9.10;;;;;;;;;;4976975;28;20533;-75
2023/04/18 03:23:27;;;;;;;15.63;9.50;;;;;;;;;;4974685;28;20756;-74
2023/04/18 03:25:53;;;;;;;13.47;9.27;;;;;;;;;;4992355;28;20197;-74
2023/04/18 03:28:20;;;;;;;16.40;9.63;;;;;;;;;;4977541;28;20619;-74
2023/04/18 03:30:47;;;;;;;15.30;9.27;;;;;;;;;;4972579;28;20236;-75
2023/04/18 03:33:15;;;;;;;14.20;9.07;;;;;;;;;;4977588;28;20543;-73
2023/04/18 03:35:43;;;;;;;13.70;8.93;;;;;;;;;;4975893;28;20274;-74
2023/04/18 03:38:09;;;;;;;15.17;9.33;;;;;;;;;;4993572;28;20200;-74
2023/04/18 03:40:41;;;;;;;12.70;8.67;;;;;;;;;;4978269;28;20232;-74
2023/04/18 03:43:14;;;;;;;13.67;8.40;;;;;;;;;;4976324;28;20207;-74
2023/04/18 03:45:42;;;;;;;11.93;8.57;;;;;;;;;;4978240;28;20912;-74
2023/04/18 03:48:09;;;;;;;14.00;9.00;;;;;;;;;;4990803;28;20710;-74
2023/04/18 03:50:40;;;;;;;14.47;8.93;;;;;;;;;;4972618;28;20227;-74
2023/04/18 03:53:09;;;;;;;13.50;8.50;;;;;;;;;;4975267;28;20278;-74
2023/04/18 03:55:37;;;;;;;13.40;8.30;;;;;;;;;;4992051;28;20568;-74
2023/04/18 03:58:05;;;;;;;16.70;9.17;;;;;;;;;;4978745;28;20227;-74
2023/04/18 04:00:32;;;;;;;13.70;8.20;;;;;;;;;;4989449;28;20224;-74
2023/04/18 04:03:04;;;;;;;12.77;8.37;;;;;;;;;;4973056;28;20500;-74
2023/04/18 04:05:30;;;;;;;12.93;8.43;;;;;;;;;;4971926;28;20245;-74
2023/04/18 04:07:56;;;;;;;15.47;9.00;;;;;;;;;;4967871;28;20235;-74
2023/04/18 04:10:23;;;;;;;11.43;7.87;;;;;;;;;;4993729;28;20271;-74
2023/04/18 04:12:50;;;;;;;13.43;8.43;;;;;;;;;;4971348;28;20200;-74
2023/04/18 04:15:19;;;;;;;14.60;8.33;;;;;;;;;;4977624;28;20286;-74
2023/04/18 04:17:54;;;;;;;13.20;8.60;;;;;;;;;;4966380;28;20626;-74
2023/04/18 04:20:23;;;;;;;13.33;8.87;;;;;;;;;;4969696;28;20205;-74
2023/04/18 04:22:54;;;;;;;14.07;7.90;;;;;;;;;;4973141;28;20234;-74
2023/04/18 04:25:23;;;;;;;12.20;8.30;;;;;;;;;;4975782;28;20690;-74
2023/04/18 04:27:52;;;;;;;14.87;8.87;;;;;;;;;;4967328;28;20226;-74
2023/04/18 04:30:22;;;;;;;14.23;9.03;;;;;;;;;;4980928;28;20217;-74
2023/04/18 04:32:49;;;;;;;13.07;8.63;;;;;;;;;;4972592;28;20234;-74
2023/04/18 04:35:15;;;;;;;14.17;8.10;;;;;;;;;;4972329;28;20205;-74
2023/04/18 04:37:42;;;;;;;16.73;8.53;;;;;;;;;;4992159;28;20209;-74
2023/04/18 04:40:22;;;;;;;14.60;8.60;;;;;;;;;;4976714;28;20622;-74
2023/04/18 04:42:55;;;;;;;15.00;9.10;;;;;;;;;;4969509;28;20730;-74
2023/04/18 04:45:28;;;;;;;14.33;9.30;;;;;;;;;;4966531;28;20556;-74
2023/04/18 04:47:54;;;;;;;14.70;9.03;;;;;;;;;;4972713;28;20220;-74
2023/04/18 04:50:21;;;;;;;14.83;8.97;;;;;;;;;;4973105;28;20574;-74
2023/04/18 04:52:47;;;;;;;13.67;8.43;;;;;;;;;;4990190;28;20280;-74
2023/04/18 04:55:13;;;;;;;14.47;8.87;;;;;;;;;;4967861;28;20197;-74
2023/04/18 04:57:41;;;;;;;13.37;8.60;;;;;;;;;;4982410;28;20211;-74
2023/04/18 05:00:31;;;;;;;14.67;8.63;;;;;;;;;;4989368;28;20278;-74
2023/04/18 05:02:57;;;;;;;12.80;7.93;;;;;;;;;;4988423;28;20341;-74
2023/04/18 05:05:25;;;;;;;16.07;9.23;;;;;;;;;;4970358;28;21631;-74
2023/04/18 05:07:52;;;;;;;13.27;8.23;;;;;;;;;;4990724;28;20447;-75
2023/04/18 05:10:18;;;;;;;17.50;9.63;;;;;;;;;;4998930;28;20281;-73
2023/04/18 05:12:45;;;;;;;13.23;8.77;;;;;;;;;;4993789;28;20572;-74
2023/04/18 05:15:12;;;;;;;14.27;8.70;;;;;;;;;;4994011;28;20591;-74
2023/04/18 05:17:40;;;;;;;14.77;9.00;;;;;;;;;;4997379;28;20206;-74
2023/04/18 05:20:07;;;;;;;15.70;8.67;;;;;;;;;;4995313;28;20719;-75
2023/04/18 05:22:33;;;;;;;13.93;9.00;;;;;;;;;;4974798;28;20249;-74
2023/04/18 05:24:59;;;;;;;13.73;8.77;;;;;;;;;;4984359;28;20196;-75
2023/04/18 05:27:26;;;;;;;16.90;9.10;;;;;;;;;;4990981;28;20543;-74
2023/04/18 05:29:52;;;;;;;17.83;9.47;;;;;;;;;;4999704;28;20205;-74
2023/04/18 05:32:18;;;;;;;12.93;8.57;;;;;;;;;;4997598;28;20217;-74
2023/04/18 05:34:46;;;;;;;15.27;9.53;;;;;;;;;;5001351;28;20520;-74
2023/04/18 05:37:13;;;;;;;18.10;9.10;;;;;;;;;;4999379;28;20208;-74
2023/04/18 05:39:39;;;;;;;15.70;9.53;;;;;;;;;;4998823;28;20220;-74
2023/04/18 05:42:06;;;;;;;16.03;9.07;;;;;;;;;;4997840;28;20702;-74
2023/04/18 05:44:32;;;;;;;14.70;9.47;;;;;;;;;;5000424;28;20240;-74
2023/04/18 05:46:58;;;;;;;14.87;9.77;;;;;;;;;;4996907;28;20215;-74
2023/04/18 05:49:25;;;;;;;15.23;9.00;;;;;;;;;;4999878;28;20599;-74
2023/04/18 05:51:53;;;;;;;15.97;9.83;;;;;;;;;;4984998;28;20228;-74
2023/04/18 05:54:20;;;;;;;15.00;9.97;;;;;;;;;;5000153;28;20207;-74
2023/04/18 05:56:46;;;;;;;15.27;9.17;;;;;;;;;;4996923;28;20227;-74
2023/04/18 05:59:13;;;;;;;15.13;9.73;;;;;;;;;;4998804;28;20202;-75
2023/04/18 06:01:39;;;;;;;16.80;9.57;;;;;;;;;;4995138;28;20239;-74
2023/04/18 06:04:07;;;;;;;15.63;9.43;;;;;;;;;;4993774;28;20668;-74
2023/04/18 06:06:34;;;;;;;14.77;9.57;;;;;;;;;;4983022;28;20200;-74
2023/04/18 06:09:02;;;;;;;15.97;9.27;;;;;;;;;;4995661;28;20602;-74
2023/04/18 06:11:28;;;;;;;15.37;9.17;;;;;;;;;;5001146;28;20922;-74
2023/04/18 06:13:55;;;;;;;17.47;9.33;;;;;;;;;;5003580;28;20701;-74
2023/04/18 06:16:22;;;;;;;13.87;9.10;;;;;;;;;;4999698;28;20284;-74
2023/04/18 06:18:48;;;;;;;15.03;9.67;;;;;;;;;;4997813;28;20205;-74
2023/04/18 06:21:15;;;;;;;13.60;9.00;;;;;;;;;;4995696;28;20283;-74
2023/04/18 06:23:41;;;;;;;14.83;9.17;;;;;;;;;;5000977;28;20610;-74
2023/04/18 06:26:09;;;;;;;14.40;8.77;;;;;;;;;;5003087;28;20544;-74
2023/04/18 06:28:35;;;;;;;14.97;9.97;;;;;;;;;;4998928;28;20223;-74
2023/04/18 06:31:02;;;;;;;19.63;10.63;;;;;;;;;;4979918;28;20334;-74
2023/04/18 06:33:28;;;;;;;16.40;10.63;;;;;;;;;;4998385;28;20236;-75
2023/04/18 06:35:55;;;;;;;16.13;10.17;;;;;;;;;;4977894;28;20198;-74
2023/04/18 06:38:21;;;;;;;19.77;9.93;;;;;;;;;;4997805;28;20268;-74
2023/04/18 06:40:47;;;;;;;17.87;10.10;;;;;;;;;;4999798;28;20583;-74
2023/04/18 06:43:15;;;;;;;16.33;10.67;;;;;;;;;;4999666;28;20589;-74
2023/04/18 06:45:41;;;;;;;16.63;10.20;;;;;;;;;;4999885;28;20238;-73
2023/04/18 06:48:09;;;;;;;18.07;9.80;;;;;;;;;;5001476;28;20705;-74
2023/04/18 06:50:36;;;;;;;19.10;11.10;;;;;;;;;;4996474;28;20228;-74
2023/04/18 06:53:02;;;;;;;18.83;11.80;;;;;;;;;;4999898;28;20212;-74
2023/04/18 06:55:29;;;;;;;17.33;10.20;;;;;;;;;;5000671;28;20634;-74
2023/04/18 06:57:56;;;;;;;19.50;11.87;;;;;;;;;;4997993;28;20687;-74
2023/04/18 07:00:24;;;;;;;20.40;12.00;;;;;;;;;;4998784;28;20513;-74
2023/04/18 07:02:50;;;;;;;16.30;11.03;;;;;;;;;;4978434;28;20622;-74
2023/04/18 07:05:17;;;;;;;18.27;11.00;;;;;;;;;;5000413;28;20685;-74
2023/04/18 07:07:43;;;;;;;18.53;10.40;;;;;;;;;;4996554;28;20228;-74
2023/04/18 07:10:10;;;;;;;18.80;11.47;;;;;;;;;;4997848;28;20259;-74
2023/04/18 07:12:36;;;;;;;20.47;12.30;;;;;;;;;;4995331;28;20208;-74
2023/04/18 07:15:03;;;;;;;21.80;11.90;;;;;;;;;;4999087;28;20685;-74
2023/04/18 07:17:31;;;;;;;21.73;13.17;;;;;;;;;;4985257;28;20308;-74
2023/04/18 07:19:58;;;;;;;22.93;12.57;;;;;;;;;;5001420;28;20228;-75
2023/04/18 07:22:25;;;;;;;21.50;12.70;;;;;;;;;;4996416;28;20754;-74
2023/04/18 07:24:51;;;;;;;21.93;13.80;;;;;;;;;;5000946;28;20192;-74
2023/04/18 07:27:17;;;;;;;26.60;12.53;;;;;;;;;;4998943;28;20223;-74
2023/04/18 07:29:44;;;;;;;22.63;12.97;;;;;;;;;;5001139;28;20204;-74
2023/04/18 07:32:10;;;;;;;21.90;12.67;;;;;;;;;;4996677;28;20232;-74
2023/04/18 07:34:39;;;;;;;26.70;13.73;;;;;;;;;;4997425;28;20212;-74
2023/04/18 07:37:05;;;;;;;24.23;12.70;;;;;;;;;;4984305;28;20209;-74
2023/04/18 07:39:34;;;;;;;21.83;13.53;;;;;;;;;;4987339;28;20243;-74
2023/04/18 07:42:01;;;;;;;23.17;14.40;;;;;;;;;;4997438;28;20584;-74
2023/04/18 07:44:27;;;;;;;25.30;14.57;;;;;;;;;;5000698;28;20298;-74
2023/04/18 07:46:53;;;;;;;24.13;14.57;;;;;;;;;;4998625;28;20200;-74
2023/04/18 07:49:20;;;;;;;20.37;13.87;;;;;;;;;;4998011;28;20634;-74
2023/04/18 07:51:48;;;;;;;19.27;12.53;;;;;;;;;;4996444;28;20295;-74
2023/04/18 07:54:15;;;;;;;19.23;11.20;;;;;;;;;;4998248;28;20366;-74
2023/04/18 07:56:41;;;;;;;17.23;11.87;;;;;;;;;;5002073;28;20204;-74
2023/04/18 07:59:07;;;;;;;17.27;10.80;;;;;;;;;;5000090;28;20203;-74
2023/04/18 08:01:34;;;;;;;15.40;10.53;;;;;;;;;;4980644;28;20240;-74
2023/04/18 08:04:01;;;;;;;14.33;8.83;;;;;;;;;;4983833;28;20205;-74
2023/04/18 08:06:28;;;;;;;11.57;8.70;;;;;;;;;;4986670;28;20237;-74
2023/04/18 08:08:57;;;;;;;10.73;7.90;;;;;;;;;;4994847;28;20233;-74
2023/04/18 08:11:24;;;;;;;10.03;7.83;;;;;;;;;;4983149;28;20227;-74
2023/04/18 08:13:50;;;;;;;12.27;7.47;;;;;;;;;;4995934;28;20305;-74
2023/04/18 08:16:17;;;;;;;7.40;6.03;;;;;;;;;;4995191;28;20202;-74
2023/04/18 08:18:43;;;;;;;11.13;7.57;;;;;;;;;;4997883;28;20689;-73
2023/04/18 08:21:09;;;;;;;11.20;8.10;;;;;;;;;;4980363;28;20606;-75
2023/04/18 08:23:35;;;;;;;13.07;8.30;;;;;;;;;;4998124;28;20558;-71
2023/04/18 08:26:03;;;;;;;10.07;7.97;;;;;;;;;;4986606;28;20234;-74
2023/04/18 08:28:30;;;;;;;10.40;7.43;;;;;;;;;;5002404;28;20280;-74
2023/04/18 08:30:56;;;;;;;9.20;7.73;;;;;;;;;;5002673;28;20219;-74
2023/04/18 08:33:22;;;;;;;8.97;6.97;;;;;;;;;;5000384;28;20239;-74
2023/04/18 08:35:49;;;;;;;11.33;7.43;;;;;;;;;;4997981;28;20585;-74
2023/04/18 08:38:17;;;;;;;11.43;8.03;;;;;;;;;;5003237;28;20605;-74
2023/04/18 08:40:43;;;;;;;8.47;6.70;;;;;;;;;;5001020;28;20824;-74
2023/04/18 08:43:13;;;;;;;9.50;7.27;;;;;;;;;;5000188;28;20201;-74
2023/04/18 08:45:40;;;;;;;7.73;6.23;;;;;;;;;;5000626;28;20212;-74
2023/04/18 08:48:07;;;;;;;9.30;6.60;;;;;;;;;;5002403;28;20230;-74
2023/04/18 08:50:33;;;;;;;9.03;6.13;;;;;;;;;;5001457;28;20244;-74
2023/04/18 08:53:00;;;;;;;8.33;6.20;;;;;;;;;;5001819;28;20752;-73
2023/04/18 08:55:27;;;;;;;9.43;6.23;;;;;;;;;;4986599;28;20205;-74
2023/04/18 08:57:54;;;;;;;7.43;6.03;;;;;;;;;;4987524;28;20217;-72
2023/04/18 09:00:22;;;;;;;7.27;6.27;;;;;;;;;;5001095;28;20781;-74
2023/04/18 09:02:53;;;;;;;9.33;6.77;;;;;;;;;;5001243;28;20201;-73
2023/04/18 09:05:20;;;;;;;9.77;6.63;;;;;;;;;;4997259;28;20205;-72
2023/04/18 09:07:47;;;;;;;11.07;6.30;;;;;;;;;;5000100;28;20209;-72
2023/04/18 09:10:24;;;;;;;12.43;6.40;;;;;;;;;;5000959;28;20201;-72
2023/04/18 09:12:50;;;;;;;13.30;6.47;;;;;;;;;;5001317;28;20213;-72
2023/04/18 09:15:19;;;;;;;10.33;6.50;;;;;;;;;;5001612;28;20247;-72
2023/04/18 09:17:49;;;;;;;10.00;7.17;;;;;;;;;;5001761;28;20214;-72
2023/04/18 09:20:25;;;;;;;9.00;6.57;;;;;;;;;;5002832;28;20220;-72
2023/04/18 09:22:56;;;;;;;10.30;7.13;;;;;;;;;;5000263;28;20682;-72
2023/04/18 09:25:24;;;;;;;8.83;6.47;;;;;;;;;;5002828;28;20201;-72
2023/04/18 09:27:50;;;;;;;10.00;7.33;;;;;;;;;;5001987;28;20650;-72
2023/04/18 09:30:28;;;;;;;9.07;6.60;;;;;;;;;;5001916;28;20212;-72
2023/04/18 09:32:58;;;;;;;9.17;6.93;;;;;;;;;;4997317;28;20872;-72
2023/04/18 09:35:25;;;;;;;9.77;7.67;;;;;;;;;;4985550;28;20208;-72
2023/04/18 09:37:51;;;;;;;11.17;7.67;;;;;;;;;;4999438;28;20226;-72
2023/04/18 09:40:18;;;;;;;10.40;6.70;;;;;;;;;;4999577;28;20574;-72
2023/04/18 09:42:45;;;;;;;8.80;6.83;;;;;;;;;;5001344;28;20206;-72
2023/04/18 09:45:11;;;;;;;14.23;7.27;;;;;;;;;;4998371;28;20209;-72
2023/04/18 09:47:39;;;;;;;12.10;7.40;;;;;;;;;;4999468;28;20212;-71
2023/04/18 09:50:08;;;;;;;10.33;7.40;;;;;;;;;;5001584;28;20306;-72
2023/04/18 09:52:36;;;;;;;10.90;7.07;;;;;;;;;;4985095;28;20216;-72
2023/04/18 09:55:04;;;;;;;14.50;7.70;;;;;;;;;;4983197;28;20204;-72
2023/04/18 09:57:32;;;;;;;10.93;7.67;;;;;;;;;;5000957;28;20254;-72
2023/04/18 10:00:12;;;;;;;10.43;7.10;;;;;;;;;;5000580;28;20203;-72
2023/04/18 10:02:49;;;;;;;11.43;7.33;;;;;;;;;;4998221;28;20660;-72
2023/04/18 10:05:17;;;;;;;10.00;7.10;;;;;;;;;;4980496;28;20240;-72
2023/04/18 10:07:46;;;;;;;10.07;7.60;;;;;;;;;;4998980;28;20209;-72
2023/04/18 10:10:12;;;;;;;10.13;7.10;;;;;;;;;;4998817;28;20214;-72
2023/04/18 10:12:39;;;;;;;10.30;7.70;;;;;;;;;;5000802;28;20693;-72
2023/04/18 10:15:06;;;;;;;12.87;7.53;;;;;;;;;;4998684;28;20277;-72
2023/04/18 10:17:40;;;;;;;13.40;7.67;;;;;;;;;;4996079;28;20206;-71
2023/04/18 10:20:08;;;;;;;9.80;7.00;;;;;;;;;;4983209;28;20231;-72
2023/04/18 10:22:36;;;;;;;10.23;7.40;;;;;;;;;;5000108;28;20251;-72
2023/04/18 10:25:03;;;;;;;8.90;6.77;;;;;;;;;;5000232;28;20201;-72
2023/04/18 10:27:48;;;;;;;13.30;7.13;;;;;;;;;;5000582;28;20762;-72
2023/04/18 10:30:15;;;;;;;8.50;6.80;;;;;;;;;;4996694;28;20634;-72
2023/04/18 10:32:41;;;;;;;11.80;6.83;;;;;;;;;;5000634;28;20695;-72
2023/04/18 10:35:08;;;;;;;9.33;7.03;;;;;;;;;;5000983;28;20223;-72
2023/04/18 10:37:34;;;;;;;11.40;7.43;;;;;;;;;;5001066;28;20686;-72
2023/04/18 10:40:05;;;;;;;10.40;7.70;;;;;;;;;;4997048;28;20208;-72
2023/04/18 10:42:46;;;;;;;9.43;7.17;;;;;;;;;;4997709;28;20246;-72
2023/04/18 10:45:16;;;;;;;8.13;6.67;;;;;;;;;;5001191;28;20201;-72
2023/04/18 10:47:43;;;;;;;11.67;8.10;;;;;;;;;;4999413;28;20476;-72
2023/04/18 10:50:10;;;;;;;10.87;7.50;;;;;;;;;;5000330;28;20217;-72
2023/04/18 10:52:37;;;;;;;10.83;7.13;;;;;;;;;;4999399;28;20192;-72
2023/04/18 10:55:10;;;;;;;10.97;7.90;;;;;;;;;;4995785;28;20694;-72
2023/04/18 10:57:37;;;;;;;10.20;7.70;;;;;;;;;;4996966;28;20250;-72
2023/04/18 11:00:04;;;;;;;13.30;8.03;;;;;;;;;;4985335;28;20275;-72
2023/04/18 11:02:32;;;;;;;10.87;7.93;;;;;;;;;;4978571;28;20636;-72
2023/04/18 11:04:59;;;;;;;10.77;7.80;;;;;;;;;;5001484;28;20201;-72
2023/04/18 11:07:32;;;;;;;10.83;7.90;;;;;;;;;;4999043;28;20193;-72
2023/04/18 11:09:58;;;;;;;11.60;7.63;;;;;;;;;;4992514;28;20220;-72
2023/04/18 11:12:28;;;;;;;11.80;8.30;;;;;;;;;;4998922;28;20221;-72
2023/04/18 11:14:55;;;;;;;11.50;7.90;;;;;;;;;;4985231;28;20213;-72
2023/04/18 11:17:22;;;;;;;11.80;7.53;;;;;;;;;;5001474;28;20201;-72
2023/04/18 11:19:49;;;;;;;11.87;8.30;;;;;;;;;;4982772;28;20236;-72
2023/04/18 11:22:16;;;;;;;15.17;8.73;;;;;;;;;;4994490;28;20229;-72
2023/04/18 11:24:43;;;;;;;10.13;7.37;;;;;;;;;;4997938;28;20366;-73
2023/04/18 11:27:10;;;;;;;13.03;7.43;;;;;;;;;;4996529;28;20209;-72
2023/04/18 11:29:38;;;;;;;12.93;8.20;;;;;;;;;;4998499;28;20267;-72
2023/04/18 11:32:06;;;;;;;13.60;7.20;;;;;;;;;;4997979;28;20225;-72
2023/04/18 11:34:32;;;;;;;8.93;7.03;;;;;;;;;;4999874;28;20682;-72
2023/04/18 11:36:59;;;;;;;12.00;7.80;;;;;;;;;;4982093;28;20208;-72
2023/04/18 11:39:25;;;;;;;10.03;6.60;;;;;;;;;;4994278;28;20225;-72
2023/04/18 11:41:51;;;;;;;11.87;7.40;;;;;;;;;;4998228;28;20240;-72
2023/04/18 11:44:22;;;;;;;13.30;8.30;;;;;;;;;;4980180;28;20202;-71
2023/04/18 11:46:51;;;;;;;13.97;7.90;;;;;;;;;;4999764;28;20327;-72
2023/04/18 11:49:24;;;;;;;17.00;9.47;;;;;;;;;;4995340;28;20216;-72
2023/04/18 11:51:52;;;;;;;14.77;9.13;;;;;;;;;;4999450;28;20888;-72
2023/04/18 11:54:38;;;;;;;12.50;8.70;;;;;;;;;;4997747;28;20209;-72
2023/04/18 11:57:04;;;;;;;11.50;7.80;;;;;;;;;;5000298;28;20680;-72
2023/04/18 11:59:30;;;;;;;11.07;7.53;;;;;;;;;;4986231;28;20410;-71
2023/04/18 12:02:03;;;;;;;11.73;7.87;;;;;;;;;;4997729;28;20756;-71
2023/04/18 12:04:29;;;;;;;10.23;7.27;;;;;;;;;;5002960;28;20679;-72
2023/04/18 12:06:55;;;;;;;13.70;7.23;;;;;;;;;;4985162;28;20220;-72
2023/04/18 12:09:24;;;;;;;14.17;7.60;;;;;;;;;;4999909;28;20228;-73
2023/04/18 12:11:57;;;;;;;9.03;7.10;;;;;;;;;;5001398;28;20246;-73
2023/04/18 12:14:24;;;;;;;12.77;7.57;;;;;;;;;;4999899;28;20264;-72
2023/04/18 12:16:51;;;;;;;11.57;8.37;;;;;;;;;;4986514;28;20219;-72
2023/04/18 12:19:20;;;;;;;11.83;7.03;;;;;;;;;;5001645;28;20204;-72
2023/04/18 12:21:59;;;;;;;11.83;8.20;;;;;;;;;;5003186;28;20220;-73
2023/04/18 12:24:25;;;;;;;11.20;7.83;;;;;;;;;;5000028;28;20284;-72
2023/04/18 12:26:52;;;;;;;14.07;7.57;;;;;;;;;;5001958;28;20205;-72
2023/04/18 12:29:18;;;;;;;10.93;7.00;;;;;;;;;;4985977;28;20330;-72
2023/04/18 12:31:45;;;;;;;12.77;7.93;;;;;;;;;;5001105;28;20216;-72
2023/04/18 12:34:12;;;;;;;11.93;7.13;;;;;;;;;;5003485;28;20415;-72
2023/04/18 12:36:40;;;;;;;11.47;7.13;;;;;;;;;;4982994;28;20870;-73
2023/04/18 12:39:07;;;;;;;12.23;8.17;;;;;;;;;;4989028;28;20200;-72
2023/04/18 12:41:33;;;;;;;11.50;7.03;;;;;;;;;;5002382;28;20625;-73
2023/04/18 12:44:00;;;;;;;10.80;7.60;;;;;;;;;;5003392;28;20671;-73
2023/04/18 12:46:27;;;;;;;11.97;7.37;;;;;;;;;;5002937;28;20203;-71
2023/04/18 12:48:55;;;;;;;11.13;7.37;;;;;;;;;;5000394;28;20296;-72
2023/04/18 12:51:22;;;;;;;15.00;7.53;;;;;;;;;;4986805;28;20843;-73
2023/04/18 12:53:50;;;;;;;11.70;7.47;;;;;;;;;;4998388;28;20678;-72
2023/04/18 12:56:17;;;;;;;11.07;7.37;;;;;;;;;;5002863;28;20208;-72
2023/04/18 12:58:44;;;;;;;11.30;7.27;;;;;;;;;;4998439;28;20201;-73
2023/04/18 13:01:12;;;;;;;11.27;6.83;;;;;;;;;;5001075;28;20257;-72
2023/04/18 13:03:39;;;;;;;9.57;6.83;;;;;;;;;;4985118;28;20585;-73
2023/04/18 13:06:05;;;;;;;11.17;7.23;;;;;;;;;;5004269;28;20212;-72
2023/04/18 13:08:32;;;;;;;10.33;7.53;;;;;;;;;;4997443;28;20208;-73
2023/04/18 13:11:00;;;;;;;10.20;7.60;;;;;;;;;;4997764;28;20697;-72
2023/04/18 13:13:26;;;;;;;13.30;7.77;;;;;;;;;;4987726;28;20633;-72
2023/04/18 13:15:53;;;;;;;9.90;6.97;;;;;;;;;;4987621;28;20221;-72
2023/04/18 13:18:20;;;;;;;10.43;7.77;;;;;;;;;;4999779;28;20252;-72
2023/04/18 13:20:48;;;;;;;10.43;7.57;;;;;;;;;;4999017;28;20226;-73
2023/04/18 13:23:14;;;;;;;11.40;8.00;;;;;;;;;;4999917;28;20228;-72
2023/04/18 13:25:41;;;;;;;9.90;7.03;;;;;;;;;;5001382;28;20228;-72
2023/04/18 13:28:09;;;;;;;9.57;7.33;;;;;;;;;;4999039;28;20206;-73
2023/04/18 13:30:36;;;;;;;9.30;7.33;;;;;;;;;;4998610;28;20311;-73
2023/04/18 13:33:02;;;;;;;13.40;7.83;;;;;;;;;;5001777;28;21031;-72
2023/04/18 13:35:29;;;;;;;10.33;7.93;;;;;;;;;;4984574;28;20219;-72
2023/04/18 13:37:55;;;;;;;12.00;7.87;;;;;;;;;;4983337;28;20506;-72
2023/04/18 13:40:22;;;;;;;11.43;7.70;;;;;;;;;;4986659;28;20238;-73
2023/04/18 13:42:48;;;;;;;10.50;7.83;;;;;;;;;;4987940;28;20226;-73
2023/04/18 13:45:15;;;;;;;10.67;7.00;;;;;;;;;;4987254;28;20210;-72
2023/04/18 13:47:42;;;;;;;11.13;7.07;;;;;;;;;;4990266;28;20198;-72
2023/04/18 13:50:08;;;;;;;10.33;7.70;;;;;;;;;;4988217;28;20302;-72
2023/04/18 13:52:35;;;;;;;14.87;7.43;;;;;;;;;;4993155;28;20206;-73
2023/04/18 13:55:01;;;;;;;12.67;7.50;;;;;;;;;;4991431;28;20216;-72
2023/04/18 13:57:30;;;;;;;9.50;7.20;;;;;;;;;;4992901;28;20211;-73
2023/04/18 13:59:56;;;;;;;12.60;7.07;;;;;;;;;;4987136;28;20198;-73
2023/04/18 14:02:24;;;;;;;11.30;7.77;;;;;;;;;;4986531;28;20313;-73
2023/04/18 14:04:53;;;;;;;10.53;6.90;;;;;;;;;;4971517;28;20218;-72
2023/04/18 14:07:19;;;;;;;9.83;6.83;;;;;;;;;;4986095;28;20281;-73
2023/04/18 14:09:46;;;;;;;10.27;7.43;;;;;;;;;;4986299;28;20228;-73
2023/04/18 14:12:13;;;;;;;10.83;7.27;;;;;;;;;;4980735;28;20263;-72
2023/04/18 14:14:39;;;;;;;10.53;7.10;;;;;;;;;;4987617;28;20220;-72
2023/04/18 14:17:06;;;;;;;10.10;7.33;;;;;;;;;;4974618;28;20225;-73
2023/04/18 14:19:34;;;;;;;9.63;7.30;;;;;;;;;;4985213;28;20286;-73
2023/04/18 14:22:01;;;;;;;13.63;7.67;;;;;;;;;;4986959;28;20693;-74
2023/04/18 14:24:27;;;;;;;11.47;7.37;;;;;;;;;;4985304;28;20216;-72
2023/04/18 14:26:53;;;;;;;9.20;7.20;;;;;;;;;;4988051;28;20210;-73
2023/04/18 14:29:19;;;;;;;10.00;7.73;;;;;;;;;;4990351;28;20303;-74
2023/04/18 14:31:46;;;;;;;13.03;7.83;;;;;;;;;;4991629;28;20232;-73
2023/04/18 14:34:13;;;;;;;10.27;7.20;;;;;;;;;;4988845;28;20226;-73